Time;durP1;ratioP1;P1;durP2;ratioP2;P2;SDS_P1;SDS_P2;PMS_P1;PMS_P2;Temp;Humidity;BMP_temperature;BMP_pressure;BME280_temperature;BME280_humidity;BME280_pressure;Samples;Min_cycle;Max_cycle;Signal;HPM_P1;HPM_P2
2021/10/31 00:00:36;;;;;;;7.45;4.03;;;21.50;52.60;;;;;;6267660;28;20064;-65
2021/10/31 00:03:36;;;;;;;7.55;4.18;;;21.50;52.60;;;;;;6267232;28;20021;-65
2021/10/31 00:06:37;;;;;;;5.35;3.85;;;21.50;52.60;;;;;;6266990;28;20021;-66
2021/10/31 00:09:38;;;;;;;5.82;3.90;;;21.50;52.60;;;;;;6267053;28;20025;-66
2021/10/31 00:12:39;;;;;;;5.20;4.10;;;21.50;52.60;;;;;;6266940;28;20040;-65
2021/10/31 00:15:39;;;;;;;5.72;4.15;;;21.50;52.60;;;;;;6266841;28;20037;-65
2021/10/31 00:18:40;;;;;;;4.97;3.75;;;21.50;52.60;;;;;;6250442;28;20049;-66
2021/10/31 00:21:41;;;;;;;4.88;3.53;;;21.50;52.60;;;;;;6242405;28;20030;-65
2021/10/31 00:24:42;;;;;;;5.75;4.18;;;21.50;52.60;;;;;;6268701;28;20559;-66
2021/10/31 00:27:42;;;;;;;5.75;3.90;;;21.50;52.60;;;;;;6247251;28;20394;-66
2021/10/31 00:30:43;;;;;;;5.85;4.25;;;21.50;52.60;;;;;;6249225;28;20021;-65
2021/10/31 00:33:43;;;;;;;5.47;3.72;;;21.50;52.60;;;;;;6270602;28;20021;-65
2021/10/31 00:36:44;;;;;;;5.55;3.80;;;21.50;52.60;;;;;;6271959;28;20032;-65
2021/10/31 00:39:44;;;;;;;4.63;3.67;;;21.40;52.50;;;;;;6272332;28;20489;-66
2021/10/31 00:42:45;;;;;;;5.35;3.90;;;21.40;52.60;;;;;;6254003;28;20060;-65
2021/10/31 00:45:46;;;;;;;5.35;3.88;;;21.50;52.60;;;;;;6247244;28;20029;-66
2021/10/31 00:48:46;;;;;;;5.32;3.72;;;21.50;52.60;;;;;;6224819;28;20647;-66
2021/10/31 00:51:47;;;;;;;5.43;3.70;;;21.50;53.40;;;;;;6230858;28;20108;-66
2021/10/31 00:54:49;;;;;;;4.90;3.72;;;21.50;52.60;;;;;;6246719;28;20037;-66
2021/10/31 00:57:49;;;;;;;4.90;3.47;;;21.40;52.60;;;;;;6262807;28;20043;-66
2021/10/31 01:00:50;;;;;;;5.47;3.95;;;21.40;52.60;;;;;;6273034;28;20021;-67
2021/10/31 01:03:52;;;;;;;5.70;3.97;;;21.40;52.60;;;;;;6240023;28;20030;-66
2021/10/31 01:06:55;;;;;;;4.10;3.40;;;21.40;52.60;;;;;;6223905;28;20085;-66
2021/10/31 01:10:14;;;;;;;5.20;3.80;;;21.40;52.60;;;;;;6223716;28;20022;-66
2021/10/31 01:13:52;;;;;;;6.10;3.45;;;21.40;52.60;;;;;;6238199;28;20042;-67
2021/10/31 01:17:15;;;;;;;5.00;3.45;;;21.40;52.60;;;;;;6247866;28;20565;-66
2021/10/31 01:20:32;;;;;;;4.15;3.45;;;21.50;52.70;;;;;;6246627;28;20486;-67
2021/10/31 01:23:56;;;;;;;4.88;3.90;;;21.40;52.60;;;;;;6247939;28;20071;-67
2021/10/31 01:27:08;;;;;;;5.18;3.80;;;21.40;53.30;;;;;;6254252;28;20029;-67
2021/10/31 01:30:37;;;;;;;4.72;3.33;;;21.40;52.60;;;;;;6247827;28;20025;-66
2021/10/31 01:34:04;;;;;;;4.80;3.58;;;21.40;53.30;;;;;;6222778;28;20396;-66
2021/10/31 01:37:28;;;;;;;4.07;3.15;;;21.40;52.70;;;;;;6222384;28;20156;-66
2021/10/31 01:40:53;;;;;;;5.45;3.45;;;21.40;52.70;;;;;;6222991;28;20057;-67
2021/10/31 01:44:16;;;;;;;4.18;3.05;;;21.50;52.70;;;;;;6223035;28;20327;-67
2021/10/31 01:47:25;;;;;;;4.88;3.50;;;21.40;52.60;;;;;;6235711;28;20060;-67
2021/10/31 01:50:47;;;;;;;4.40;3.47;;;21.40;52.60;;;;;;6247325;28;20104;-66
2021/10/31 01:53:54;;;;;;;4.35;3.33;;;21.40;52.70;;;;;;6246769;28;20425;-67
2021/10/31 01:57:00;;;;;;;5.03;3.67;;;21.40;52.60;;;;;;6247256;28;20375;-67
2021/10/31 02:00:13;;;;;;;3.90;2.90;;;21.40;52.60;;;;;;6247634;28;20033;-68
2021/10/31 02:03:18;;;;;;;4.45;3.28;;;21.40;52.70;;;;;;6247337;28;20025;-64
2021/10/31 02:06:20;;;;;;;;;;;21.40;52.70;;;;;;6249282;28;20021;-66
2021/10/31 02:09:22;;;;;;;4.32;3.33;;;21.50;52.80;;;;;;6271739;28;19937;-66
2021/10/31 02:12:25;;;;;;;4.00;3.05;;;21.40;52.70;;;;;;6249537;28;20135;-67
2021/10/31 02:15:26;;;;;;;3.60;3.10;;;21.40;52.70;;;;;;6221907;28;20053;-67
2021/10/31 02:18:28;;;;;;;4.25;3.20;;;21.40;52.80;;;;;;6222137;28;20559;-67
2021/10/31 02:21:35;;;;;;;3.53;2.97;;;21.40;52.70;;;;;;6222979;28;20022;-66
2021/10/31 02:24:37;;;;;;;4.22;3.20;;;21.40;52.80;;;;;;6245092;28;20447;-67
2021/10/31 02:27:42;;;;;;;4.05;3.00;;;21.40;52.70;;;;;;6246054;28;20049;-67
2021/10/31 02:30:42;;;;;;;;;;;21.40;52.70;;;;;;6246747;28;20017;-66
2021/10/31 02:33:43;;;;;;;3.13;2.72;;;21.40;52.70;;;;;;6246125;28;20379;-66
2021/10/31 02:36:44;;;;;;;3.42;2.97;;;21.40;52.80;;;;;;6254897;28;20021;-66
2021/10/31 02:39:45;;;;;;;3.92;2.88;;;21.40;52.80;;;;;;6271039;28;20024;-67
2021/10/31 02:42:46;;;;;;;3.90;2.90;;;21.40;52.80;;;;;;6252943;28;20166;-66
2021/10/31 02:45:47;;;;;;;3.72;2.88;;;21.40;52.70;;;;;;6245760;28;20140;-67
2021/10/31 02:48:47;;;;;;;3.42;2.80;;;21.40;52.70;;;;;;6245011;28;20018;-64
2021/10/31 02:52:02;;;;;;;4.50;3.10;;;21.40;52.70;;;;;;6245806;28;20029;-63
2021/10/31 02:55:29;;;;;;;4.05;3.20;;;21.40;52.80;;;;;;6245894;28;20044;-64
2021/10/31 02:58:40;;;;;;;3.67;2.70;;;21.40;52.80;;;;;;6223017;28;20037;-66
2021/10/31 03:01:41;;;;;;;4.07;2.95;;;21.40;52.70;;;;;;6226968;28;20475;-67
2021/10/31 03:04:43;;;;;;;4.15;2.80;;;21.40;52.80;;;;;;6245406;28;20037;-67
2021/10/31 03:07:44;;;;;;;3.08;2.78;;;21.40;52.80;;;;;;6245395;28;20028;-67
2021/10/31 03:10:57;;;;;;;3.53;2.60;;;21.40;52.80;;;;;;6245268;28;20042;-67
2021/10/31 03:13:58;;;;;;;3.65;2.83;;;21.40;52.80;;;;;;6225721;28;20030;-66
2021/10/31 03:16:58;;;;;;;3.63;2.70;;;21.40;52.90;;;;;;6226743;28;20694;-67
2021/10/31 03:19:59;;;;;;;4.10;3.13;;;21.40;52.90;;;;;;6270017;28;20143;-67
2021/10/31 03:22:59;;;;;;;2.70;2.42;;;21.40;52.90;;;;;;6268345;28;20024;-65
2021/10/31 03:26:00;;;;;;;3.40;2.90;;;21.40;52.80;;;;;;6264186;28;20380;-66
2021/10/31 03:29:01;;;;;;;4.43;2.95;;;21.40;52.80;;;;;;6243521;28;20487;-66
2021/10/31 03:32:01;;;;;;;4.15;2.80;;;21.40;52.80;;;;;;6245313;28;20044;-67
2021/10/31 03:35:02;;;;;;;5.13;2.80;;;21.40;52.90;;;;;;6244863;28;20474;-67
2021/10/31 03:38:04;;;;;;;3.67;2.60;;;21.40;52.80;;;;;;6244966;28;20272;-67
2021/10/31 03:41:04;;;;;;;3.13;2.70;;;21.40;52.90;;;;;;6244378;28;20029;-67
2021/10/31 03:44:05;;;;;;;3.55;2.33;;;21.40;52.90;;;;;;6244969;28;20132;-67
2021/10/31 03:47:07;;;;;;;3.40;2.90;;;21.40;52.90;;;;;;6255957;28;20389;-67
2021/10/31 03:50:08;;;;;;;3.58;2.70;;;21.40;52.90;;;;;;6269258;28;20029;-66
2021/10/31 03:53:09;;;;;;;3.63;2.83;;;21.40;52.90;;;;;;6269066;28;20044;-66
2021/10/31 03:56:09;;;;;;;4.68;3.28;;;21.40;52.90;;;;;;6265326;28;20029;-67
2021/10/31 04:03:07;;;;;;;3.58;2.78;;;21.40;52.80;;;;;;6244734;28;20045;-66
2021/10/31 04:06:07;;;;;;;2.88;2.30;;;21.40;52.90;;;;;;6244675;28;20036;-66
2021/10/31 04:09:08;;;;;;;3.50;2.75;;;21.40;52.80;;;;;;6269105;28;20023;-66
2021/10/31 04:12:08;;;;;;;3.60;2.65;;;21.40;52.80;;;;;;6268444;28;20502;-67
2021/10/31 04:15:09;;;;;;;4.07;2.92;;;21.40;53.00;;;;;;6268900;28;20035;-66
2021/10/31 04:18:10;;;;;;;3.20;2.70;;;21.40;52.90;;;;;;6268781;28;20021;-67
2021/10/31 04:21:11;;;;;;;3.67;2.80;;;21.40;52.90;;;;;;6268838;28;20249;-67
2021/10/31 04:24:11;;;;;;;3.00;2.60;;;21.40;52.90;;;;;;6268903;28;20317;-66
2021/10/31 04:27:12;;;;;;;2.90;2.60;;;21.40;52.90;;;;;;6268818;28;20051;-67
2021/10/31 04:30:13;;;;;;;3.05;2.25;;;21.40;52.90;;;;;;6268728;28;20025;-67
2021/10/31 04:33:13;;;;;;;2.67;2.30;;;21.40;53.00;;;;;;6244747;28;20131;-67
2021/10/31 04:36:14;;;;;;;3.83;2.67;;;21.40;52.90;;;;;;6243740;28;20097;-66
2021/10/31 04:39:15;;;;;;;3.95;2.88;;;21.40;52.90;;;;;;6243200;28;20068;-67
2021/10/31 04:42:16;;;;;;;2.78;2.47;;;21.40;52.90;;;;;;6257562;28;20474;-67
2021/10/31 04:45:17;;;;;;;3.33;2.65;;;21.40;52.90;;;;;;6267657;28;20036;-66
2021/10/31 04:48:18;;;;;;;3.38;2.50;;;21.40;52.90;;;;;;6268423;28;20090;-66
2021/10/31 04:51:19;;;;;;;3.03;2.38;;;21.40;52.90;;;;;;6268636;28;20660;-66
2021/10/31 04:54:20;;;;;;;2.90;2.40;;;21.40;52.90;;;;;;6268614;28;20096;-66
2021/10/31 04:57:21;;;;;;;3.40;2.58;;;21.40;52.90;;;;;;6256352;28;20037;-67
2021/10/31 05:00:21;;;;;;;2.63;2.35;;;21.40;53.00;;;;;;6243756;28;20379;-67
2021/10/31 05:03:22;;;;;;;2.60;2.30;;;21.40;53.00;;;;;;6243654;28;20104;-66
2021/10/31 05:06:22;;;;;;;3.00;2.50;;;21.40;52.90;;;;;;6244126;28;20034;-67
2021/10/31 05:09:23;;;;;;;2.92;2.40;;;21.40;52.90;;;;;;6219270;28;20096;-67
2021/10/31 05:12:25;;;;;;;2.92;2.28;;;21.40;53.00;;;;;;6222407;28;20042;-66
2021/10/31 05:15:26;;;;;;;3.38;2.45;;;21.40;53.00;;;;;;6223556;28;20481;-67
2021/10/31 05:18:27;;;;;;;2.88;2.28;;;21.40;53.00;;;;;;6223751;28;20029;-66
2021/10/31 05:21:27;;;;;;;3.03;2.17;;;21.40;53.00;;;;;;6223412;28;20056;-66
2021/10/31 05:24:28;;;;;;;3.00;2.40;;;21.40;53.70;;;;;;6269622;28;20029;-67
2021/10/31 05:27:28;;;;;;;3.33;2.40;;;21.40;53.00;;;;;;6272603;28;20083;-66
2021/10/31 05:30:29;;;;;;;2.95;2.33;;;21.40;53.00;;;;;;6271242;28;20104;-67
2021/10/31 05:33:30;;;;;;;2.60;2.30;;;21.40;53.10;;;;;;6223381;28;20029;-66
2021/10/31 05:36:34;;;;;;;2.55;2.33;;;21.40;53.00;;;;;;6239836;28;20021;-67
2021/10/31 05:39:34;;;;;;;3.53;2.67;;;21.40;53.00;;;;;;6272480;28;20071;-67
2021/10/31 05:42:35;;;;;;;3.03;2.35;;;21.40;53.10;;;;;;6256187;28;20029;-66
2021/10/31 05:45:36;;;;;;;3.05;2.35;;;21.40;53.10;;;;;;6247326;28;20453;-66
2021/10/31 05:48:36;;;;;;;3.30;2.47;;;21.40;53.10;;;;;;6225591;28;20029;-67
2021/10/31 05:51:38;;;;;;;2.20;1.80;;;21.40;53.10;;;;;;6235152;28;20098;-67
2021/10/31 05:54:38;;;;;;;2.70;2.42;;;21.40;53.10;;;;;;6272036;28;20060;-66
2021/10/31 05:57:39;;;;;;;2.30;2.10;;;21.40;53.10;;;;;;6271831;28;20021;-67
2021/10/31 06:00:40;;;;;;;2.70;1.85;;;21.40;53.10;;;;;;6271824;28;20068;-66
2021/10/31 06:03:40;;;;;;;2.88;2.15;;;21.40;53.10;;;;;;6247098;28;20029;-67
2021/10/31 06:06:41;;;;;;;2.38;1.95;;;21.40;53.20;;;;;;6246841;28;20021;-67
2021/10/31 06:09:42;;;;;;;3.30;2.50;;;21.40;53.10;;;;;;6247152;28;20036;-67
2021/10/31 06:12:45;;;;;;;2.40;2.10;;;21.40;53.10;;;;;;6245531;28;20041;-66
2021/10/31 06:15:47;;;;;;;2.50;2.22;;;21.40;53.10;;;;;;6246402;28;20037;-67
2021/10/31 06:18:48;;;;;;;2.25;1.92;;;21.40;53.10;;;;;;6265755;28;20440;-67
2021/10/31 06:21:48;;;;;;;2.20;2.00;;;21.40;53.20;;;;;;6269025;28;20033;-66
2021/10/31 06:24:49;;;;;;;2.17;1.98;;;21.40;53.20;;;;;;6246584;28;20092;-66
2021/10/31 06:27:49;;;;;;;2.55;2.08;;;21.40;53.20;;;;;;6243942;28;20029;-66
2021/10/31 06:30:50;;;;;;;2.63;2.35;;;21.40;53.20;;;;;;6244496;28;20030;-65
2021/10/31 06:33:50;;;;;;;2.20;1.85;;;21.40;53.20;;;;;;6243403;28;20067;-66
2021/10/31 06:36:51;;;;;;;2.47;2.00;;;21.40;53.20;;;;;;6255709;28;20029;-65
2021/10/31 06:39:52;;;;;;;2.20;1.95;;;21.40;53.20;;;;;;6269264;28;20222;-65
2021/10/31 06:42:53;;;;;;;2.53;1.98;;;21.40;53.20;;;;;;6268979;28;20021;-65
2021/10/31 06:45:53;;;;;;;3.10;2.42;;;21.40;53.20;;;;;;6266907;28;20013;-66
2021/10/31 06:48:54;;;;;;;2.53;1.92;;;21.40;53.20;;;;;;6218678;28;20026;-66
2021/10/31 06:51:54;;;;;;;2.30;2.05;;;21.40;53.20;;;;;;6265161;28;20028;-65
2021/10/31 06:54:57;;;;;;;2.65;2.00;;;21.40;53.20;;;;;;6267331;28;20075;-66
2021/10/31 06:57:58;;;;;;;2.20;1.85;;;21.40;53.20;;;;;;6266987;28;20053;-65
2021/10/31 07:00:58;;;;;;;3.45;2.20;;;21.40;53.20;;;;;;6268997;28;20489;-65
2021/10/31 07:03:59;;;;;;;2.70;2.20;;;21.40;53.20;;;;;;6243873;28;20038;-65
2021/10/31 07:07:00;;;;;;;2.10;1.88;;;21.40;53.20;;;;;;6243786;28;20026;-65
2021/10/31 07:10:00;;;;;;;2.30;2.10;;;21.40;53.20;;;;;;6243908;28;20390;-65
2021/10/31 07:13:01;;;;;;;2.22;1.85;;;21.40;53.20;;;;;;6258770;28;20383;-65
2021/10/31 07:16:01;;;;;;;2.40;2.00;;;21.40;53.20;;;;;;6268392;28;20374;-66
2021/10/31 07:19:03;;;;;;;2.28;1.80;;;21.40;53.20;;;;;;6249189;28;20029;-65
2021/10/31 07:22:04;;;;;;;2.15;1.92;;;21.40;53.20;;;;;;6246326;28;20136;-66
2021/10/31 07:25:05;;;;;;;2.10;1.77;;;21.40;53.30;;;;;;6267760;28;20037;-65
2021/10/31 07:28:06;;;;;;;2.47;2.03;;;21.40;53.40;;;;;;6268131;28;20039;-66
2021/10/31 07:31:08;;;;;;;2.03;1.83;;;21.40;53.30;;;;;;6267474;28;20021;-66
2021/10/31 07:34:10;;;;;;;2.30;1.92;;;21.40;53.20;;;;;;6267917;28;20020;-65
2021/10/31 07:37:11;;;;;;;2.78;2.15;;;21.40;53.20;;;;;;6267500;28;20030;-65
2021/10/31 07:40:11;;;;;;;2.90;2.55;;;21.40;53.20;;;;;;6268201;28;20057;-66
2021/10/31 07:43:12;;;;;;;2.22;1.90;;;21.40;53.30;;;;;;6247008;28;20068;-66
2021/10/31 07:46:12;;;;;;;2.47;1.88;;;21.40;53.20;;;;;;6241997;28;20025;-66
2021/10/31 07:49:13;;;;;;;2.53;1.80;;;21.40;53.20;;;;;;6219208;28;20633;-65
2021/10/31 07:52:14;;;;;;;2.17;1.77;;;21.40;53.20;;;;;;6243223;28;20386;-66
2021/10/31 07:55:18;;;;;;;3.10;2.20;;;21.40;53.20;;;;;;6268786;28;20478;-66
2021/10/31 07:58:24;;;;;;;1.97;1.63;;;21.40;53.20;;;;;;6268181;28;20043;-66
2021/10/31 08:01:25;;;;;;;2.10;1.80;;;21.40;53.20;;;;;;6267803;28;20020;-64
2021/10/31 08:04:25;;;;;;;2.35;1.90;;;21.40;53.20;;;;;;6268468;28;20040;-65
2021/10/31 08:07:30;;;;;;;2.05;1.85;;;21.40;53.20;;;;;;6269451;28;20484;-67
2021/10/31 08:10:30;;;;;;;3.15;2.20;;;21.40;53.20;;;;;;6267772;28;20017;-67
2021/10/31 08:13:32;;;;;;;3.08;2.38;;;21.40;53.20;;;;;;6264259;28;20272;-67
2021/10/31 08:16:36;;;;;;;1.90;1.70;;;21.40;53.30;;;;;;6242888;28;20026;-67
2021/10/31 08:19:36;;;;;;;2.38;2.15;;;21.40;53.20;;;;;;6266675;28;20017;-67
2021/10/31 08:22:37;;;;;;;2.42;1.98;;;21.40;53.20;;;;;;6267670;28;20509;-67
2021/10/31 08:25:38;;;;;;;2.30;2.00;;;21.40;53.20;;;;;;6259913;28;20530;-67
2021/10/31 08:28:40;;;;;;;2.20;1.75;;;21.40;53.30;;;;;;6265818;28;20207;-67
2021/10/31 08:31:42;;;;;;;1.70;1.60;;;21.40;53.20;;;;;;6266038;28;20024;-67
2021/10/31 08:34:43;;;;;;;2.45;1.73;;;21.40;53.20;;;;;;6266963;28;20021;-67
2021/10/31 08:37:43;;;;;;;1.88;1.67;;;21.40;53.20;;;;;;6266762;28;20263;-67
2021/10/31 08:40:47;;;;;;;2.25;1.88;;;21.40;53.30;;;;;;6266581;28;20025;-67
2021/10/31 08:43:50;;;;;;;2.70;1.88;;;21.40;53.30;;;;;;6242752;28;20234;-67
2021/10/31 08:46:51;;;;;;;2.00;1.52;;;21.40;53.30;;;;;;6239124;28;20021;-67
2021/10/31 08:49:51;;;;;;;3.03;2.22;;;21.40;53.30;;;;;;6221257;28;20571;-66
2021/10/31 08:52:52;;;;;;;5.05;1.73;;;21.40;53.30;;;;;;6247163;28;20025;-67
2021/10/31 08:55:52;;;;;;;8.20;2.20;;;21.40;53.30;;;;;;6259095;28;20030;-67
2021/10/31 08:58:53;;;;;;;5.18;1.98;;;21.40;53.20;;;;;;6246242;28;20426;-67
2021/10/31 09:01:54;;;;;;;2.08;1.80;;;21.40;53.30;;;;;;6249189;28;20049;-68
2021/10/31 09:04:55;;;;;;;2.22;1.80;;;21.40;53.30;;;;;;6251197;28;20026;-68
2021/10/31 09:07:57;;;;;;;2.38;2.03;;;21.40;53.30;;;;;;6246443;28;20026;-68
2021/10/31 09:10:57;;;;;;;2.65;2.17;;;21.40;53.40;;;;;;6247701;28;20041;-68
2021/10/31 09:13:59;;;;;;;6.22;2.20;;;21.40;53.30;;;;;;6238937;28;20483;-68
2021/10/31 09:17:01;;;;;;;2.78;1.92;;;21.40;53.30;;;;;;6248785;28;20085;-66
2021/10/31 09:20:02;;;;;;;4.45;1.80;;;21.40;53.30;;;;;;6235932;28;20061;-68
2021/10/31 09:23:05;;;;;;;2.17;1.98;;;21.40;53.30;;;;;;6248243;28;20033;-68
2021/10/31 09:26:06;;;;;;;3.47;2.22;;;21.40;53.40;;;;;;6250375;28;20116;-68
2021/10/31 09:29:07;;;;;;;3.17;2.33;;;21.40;53.40;;;;;;6245947;28;20021;-68
2021/10/31 09:32:08;;;;;;;2.88;2.28;;;21.40;53.40;;;;;;6241325;28;20017;-68
2021/10/31 09:35:09;;;;;;;4.82;2.38;;;21.40;53.40;;;;;;6255196;28;20025;-68
2021/10/31 09:38:11;;;;;;;3.92;2.50;;;21.40;53.50;;;;;;6245266;28;20033;-67
2021/10/31 09:41:14;;;;;;;4.75;2.55;;;21.40;53.40;;;;;;6244528;28;20029;-68
2021/10/31 09:44:24;;;;;;;4.70;2.72;;;21.40;53.50;;;;;;6245758;28;20025;-68
2021/10/31 09:47:25;;;;;;;15.27;5.38;;;21.40;53.50;;;;;;6235235;28;20108;-68
2021/10/31 09:50:28;;;;;;;21.95;6.53;;;21.50;53.60;;;;;;6245563;28;20478;-68
2021/10/31 09:53:29;;;;;;;13.82;5.55;;;21.50;53.70;;;;;;6241308;28;20052;-68
2021/10/31 09:56:33;;;;;;;10.10;4.68;;;21.50;53.70;;;;;;6237489;28;20030;-68
2021/10/31 09:59:39;;;;;;;10.00;4.93;;;21.50;53.70;;;;;;6237849;28;20026;-67
2021/10/31 10:06:19;;;;;;;9.85;4.82;;;21.50;53.80;;;;;;6251674;28;20060;-71
2021/10/31 10:09:21;;;;;;;13.38;4.70;;;21.50;53.70;;;;;;6228900;28;20387;-69
2021/10/31 10:12:27;;;;;;;11.38;5.07;;;21.50;53.80;;;;;;6247005;28;20110;-68
2021/10/31 10:15:27;;;;;;;12.45;4.65;;;21.50;53.70;;;;;;6236546;28;20022;-69
2021/10/31 10:18:32;;;;;;;10.98;4.60;;;21.50;53.70;;;;;;6239845;28;20395;-69
2021/10/31 10:21:33;;;;;;;12.05;4.55;;;21.50;53.70;;;;;;6236329;28;20675;-69
2021/10/31 10:24:40;;;;;;;11.88;4.32;;;21.50;53.70;;;;;;6233807;28;20040;-69
2021/10/31 10:27:47;;;;;;;10.00;4.70;;;21.50;53.60;;;;;;6226507;28;20022;-68
2021/10/31 10:30:47;;;;;;;10.38;4.93;;;21.50;53.60;;;;;;6239697;28;20029;-69
2021/10/31 10:33:49;;;;;;;10.98;4.70;;;21.50;53.60;;;;;;6235950;28;20025;-69
2021/10/31 10:36:55;;;;;;;8.70;4.57;;;21.50;53.60;;;;;;6245245;28;20037;-69
2021/10/31 10:40:05;;;;;;;11.35;5.10;;;21.60;53.70;;;;;;6245344;28;20113;-69
2021/10/31 10:43:06;;;;;;;9.98;5.20;;;21.60;53.70;;;;;;6244281;28;20021;-69
2021/10/31 10:46:10;;;;;;;9.63;4.50;;;21.60;53.70;;;;;;6242770;28;20071;-69
2021/10/31 10:49:16;;;;;;;8.80;4.32;;;21.60;53.70;;;;;;6260124;28;20021;-69
2021/10/31 10:52:20;;;;;;;9.70;4.65;;;21.60;53.70;;;;;;6252883;28;20116;-69
2021/10/31 10:55:24;;;;;;;7.60;2.87;;;21.60;53.70;;;;;;6249604;28;20026;-69
2021/10/31 10:58:24;;;;;;;10.30;4.85;;;21.60;53.70;;;;;;6240869;28;20789;-69
2021/10/31 11:01:25;;;;;;;9.32;4.63;;;21.60;53.60;;;;;;6240689;28;20026;-69
2021/10/31 11:04:31;;;;;;;11.70;4.50;;;21.60;53.70;;;;;;6251843;28;20044;-69
2021/10/31 11:07:42;;;;;;;9.40;4.55;;;21.60;53.60;;;;;;6236277;28;20515;-69
2021/10/31 11:11:12;;;;;;;10.20;4.85;;;21.60;53.70;;;;;;6250953;28;20056;-69
2021/10/31 11:14:13;;;;;;;13.95;5.93;;;21.60;53.70;;;;;;6217614;28;20053;-69
2021/10/31 11:17:17;;;;;;;13.48;5.68;;;21.60;53.70;;;;;;6230306;28;20038;-67
2021/10/31 11:20:23;;;;;;;15.10;6.90;;;21.60;53.70;;;;;;6258435;28;20028;-67
2021/10/31 11:23:26;;;;;;;11.63;5.93;;;21.60;53.70;;;;;;6246684;28;20052;-68
2021/10/31 11:26:30;;;;;;;15.45;6.88;;;21.60;53.70;;;;;;6244119;28;20100;-68
2021/10/31 11:29:35;;;;;;;13.98;6.70;;;21.60;53.80;;;;;;6244790;28;20025;-68
2021/10/31 11:32:37;;;;;;;12.32;5.97;;;21.60;53.80;;;;;;6260901;28;20017;-68
2021/10/31 11:35:39;;;;;;;17.02;6.68;;;21.60;53.80;;;;;;6257290;28;20056;-68
2021/10/31 11:38:43;;;;;;;14.48;6.57;;;21.60;53.70;;;;;;6244071;28;20714;-68
2021/10/31 11:41:45;;;;;;;13.15;6.57;;;21.60;53.70;;;;;;6240174;28;20028;-68
2021/10/31 11:45:06;;;;;;;16.95;6.97;;;21.60;53.70;;;;;;6240310;28;20057;-68
2021/10/31 11:48:39;;;;;;;14.95;6.55;;;21.60;53.70;;;;;;6256572;28;20564;-67
2021/10/31 11:51:42;;;;;;;16.38;6.43;;;21.60;53.80;;;;;;6235745;28;20120;-68
2021/10/31 11:55:03;;;;;;;16.88;7.50;;;21.60;53.90;;;;;;6248877;28;20070;-67
2021/10/31 11:58:23;;;;;;;15.75;6.80;;;21.60;53.90;;;;;;6263563;28;20029;-67
2021/10/31 12:01:37;;;;;;;15.57;6.95;;;21.60;53.80;;;;;;6262549;28;20434;-68
2021/10/31 12:05:15;;;;;;;17.83;7.03;;;21.60;53.90;;;;;;6242064;28;20036;-68
2021/10/31 12:08:09;;;;;;;16.40;7.05;;;21.60;53.90;;;;;;6240666;28;20116;-67
2021/10/31 12:11:10;;;;;;;17.05;6.57;;;21.60;54.00;;;;;;6246721;28;20055;-68
2021/10/31 12:14:13;;;;;;;15.07;6.75;;;21.60;53.90;;;;;;6260452;28;20360;-68
2021/10/31 12:17:15;;;;;;;12.52;6.15;;;21.60;53.90;;;;;;6252203;28;20017;-68
2021/10/31 12:20:50;;;;;;;14.20;6.35;;;21.60;53.90;;;;;;6233092;28;20553;-67
2021/10/31 12:24:07;;;;;;;15.18;6.95;;;21.60;53.90;;;;;;6265421;28;20029;-67
2021/10/31 12:27:18;;;;;;;13.68;6.32;;;21.60;53.90;;;;;;6269869;28;20021;-67
2021/10/31 12:30:30;;;;;;;14.93;6.32;;;21.60;54.00;;;;;;6255419;28;20025;-68
2021/10/31 12:34:11;;;;;;;13.43;6.05;;;21.60;53.90;;;;;;6258394;28;20096;-68
2021/10/31 12:37:26;;;;;;;16.38;6.00;;;21.60;54.00;;;;;;6260538;28;20025;-67
2021/10/31 12:40:27;;;;;;;;;;;21.60;54.00;;;;;;6255047;28;20055;-68
2021/10/31 12:43:47;;;;;;;10.95;5.93;;;21.60;54.10;;;;;;6252274;28;20055;-68
2021/10/31 12:47:03;;;;;;;14.20;6.10;;;21.60;54.00;;;;;;6255302;28;20062;-67
2021/10/31 12:50:17;;;;;;;12.32;5.90;;;21.60;54.30;;;;;;6265822;28;20367;-69
2021/10/31 12:53:18;;;;;;;8.98;5.03;;;21.60;54.10;;;;;;6243039;28;20095;-67
2021/10/31 12:56:21;;;;;;;17.20;5.72;;;21.60;54.10;;;;;;6250872;28;20021;-67
2021/10/31 12:59:22;;;;;;;12.20;5.00;;;21.60;54.00;;;;;;6228740;28;20061;-67
2021/10/31 13:02:24;;;;;;;11.82;5.15;;;21.60;54.40;;;;;;6254247;28;20115;-67
2021/10/31 13:05:44;;;;;;;12.68;5.82;;;21.70;54.20;;;;;;6239952;28;20022;-67
2021/10/31 13:08:55;;;;;;;12.93;4.82;;;21.70;54.20;;;;;;6265357;28;20025;-67
2021/10/31 13:11:57;;;;;;;10.65;5.40;;;21.60;54.10;;;;;;6260639;28;20044;-70
2021/10/31 13:15:03;;;;;;;9.30;5.30;;;21.60;54.10;;;;;;6246649;28;20022;-69
2021/10/31 13:18:16;;;;;;;9.13;4.97;;;21.60;54.20;;;;;;6249659;28;20022;-69
2021/10/31 13:21:20;;;;;;;7.85;4.53;;;21.60;54.10;;;;;;6245819;28;20528;-69
2021/10/31 13:24:21;;;;;;;10.87;4.73;;;21.60;54.20;;;;;;6258903;28;20049;-69
2021/10/31 13:27:24;;;;;;;8.73;4.55;;;21.60;54.20;;;;;;6241882;28;20816;-68
2021/10/31 13:30:28;;;;;;;8.68;4.43;;;21.60;54.20;;;;;;6244265;28;20010;-69
2021/10/31 13:33:36;;;;;;;9.68;4.57;;;21.60;54.20;;;;;;6235447;28;20100;-71
2021/10/31 13:36:38;;;;;;;11.20;4.65;;;21.60;54.20;;;;;;6245504;28;20102;-69
2021/10/31 13:39:39;;;;;;;10.98;4.82;;;21.60;54.30;;;;;;6261568;28;20029;-69
2021/10/31 13:42:43;;;;;;;9.70;4.22;;;21.60;54.20;;;;;;6236367;28;20514;-69
2021/10/31 13:45:57;;;;;;;10.77;4.38;;;21.60;55.20;;;;;;6236580;28;20033;-68
2021/10/31 13:49:05;;;;;;;9.25;4.05;;;21.60;54.30;;;;;;6241122;28;20029;-68
2021/10/31 13:52:06;;;;;;;13.38;4.97;;;21.60;54.40;;;;;;6249999;28;20108;-68
2021/10/31 13:55:10;;;;;;;9.63;4.20;;;21.60;54.70;;;;;;6236965;28;20631;-69
2021/10/31 13:58:10;;;;;;;9.85;4.60;;;21.60;54.30;;;;;;6257831;28;20026;-68
2021/10/31 14:01:29;;;;;;;9.95;4.18;;;21.60;54.30;;;;;;6255260;28;20546;-68
2021/10/31 14:04:30;;;;;;;9.13;4.15;;;21.60;54.40;;;;;;6247016;28;20025;-68
2021/10/31 14:07:36;;;;;;;8.80;4.20;;;21.60;54.30;;;;;;6251819;28;20103;-68
2021/10/31 14:10:43;;;;;;;8.98;4.47;;;21.60;54.30;;;;;;6267928;28;20486;-68
2021/10/31 14:13:44;;;;;;;9.25;3.85;;;21.60;54.30;;;;;;6263523;28;20022;-68
2021/10/31 14:16:45;;;;;;;8.35;3.95;;;21.60;54.30;;;;;;6248937;28;20025;-68
2021/10/31 14:19:48;;;;;;;9.60;4.20;;;21.60;54.30;;;;;;6238072;28;20566;-68
2021/10/31 14:22:52;;;;;;;7.80;3.78;;;21.60;54.30;;;;;;6263659;28;20031;-67
2021/10/31 14:25:58;;;;;;;7.47;3.75;;;21.60;54.40;;;;;;6253664;28;20041;-67
2021/10/31 14:28:58;;;;;;;10.35;3.75;;;21.60;54.30;;;;;;6260845;28;20104;-67
2021/10/31 14:32:03;;;;;;;7.47;4.00;;;21.60;54.50;;;;;;6240777;28;20031;-67
2021/10/31 14:35:04;;;;;;;7.72;3.00;;;21.60;54.40;;;;;;6261390;28;20025;-67
2021/10/31 14:38:25;;;;;;;7.35;3.85;;;21.60;54.40;;;;;;6248556;28;20033;-67
2021/10/31 14:41:33;;;;;;;8.35;3.78;;;21.60;54.40;;;;;;6261448;28;20164;-70
2021/10/31 14:44:39;;;;;;;9.32;3.78;;;21.60;54.40;;;;;;6239611;28;20104;-68
2021/10/31 14:47:43;;;;;;;8.57;3.47;;;21.60;54.40;;;;;;6237892;28;20021;-68
2021/10/31 14:50:43;;;;;;;7.28;3.83;;;21.60;54.40;;;;;;6235599;28;20517;-68
2021/10/31 14:53:57;;;;;;;7.18;3.58;;;21.60;54.50;;;;;;6254889;28;20025;-68
2021/10/31 15:00:13;;;;;;;6.28;3.53;;;21.60;54.50;;;;;;6260547;28;20880;-68
2021/10/31 15:03:15;;;;;;;9.27;3.78;;;21.60;54.50;;;;;;6265319;28;20159;-69
2021/10/31 15:06:16;;;;;;;10.05;3.67;;;21.60;54.50;;;;;;6264840;28;20025;-69
2021/10/31 15:09:18;;;;;;;7.65;4.15;;;21.60;54.40;;;;;;6230909;28;20033;-68
2021/10/31 15:12:19;;;;;;;6.88;3.80;;;21.60;54.40;;;;;;6228626;28;20403;-70
2021/10/31 15:15:21;;;;;;;9.45;3.75;;;21.60;54.50;;;;;;6236388;28;20108;-67
2021/10/31 15:18:23;;;;;;;10.30;4.07;;;21.60;54.50;;;;;;6254847;28;20029;-68
2021/10/31 15:21:28;;;;;;;10.13;3.80;;;21.60;54.40;;;;;;6244628;28;20022;-67
2021/10/31 15:24:32;;;;;;;11.90;4.60;;;21.60;54.50;;;;;;6244239;28;20033;-68
2021/10/31 15:27:34;;;;;;;9.23;4.25;;;21.60;54.40;;;;;;6245758;28;20029;-67
2021/10/31 15:30:35;;;;;;;8.27;3.95;;;21.60;54.50;;;;;;6243755;28;20550;-67
2021/10/31 15:33:38;;;;;;;14.95;5.60;;;21.60;54.50;;;;;;6261876;28;20021;-67
2021/10/31 15:36:39;;;;;;;17.42;7.18;;;21.60;54.90;;;;;;6248364;28;20538;-68
2021/10/31 15:39:40;;;;;;;24.67;9.15;;;21.60;54.60;;;;;;6243862;28;20029;-68
2021/10/31 15:42:42;;;;;;;14.93;6.70;;;21.60;54.50;;;;;;6242920;28;20025;-67
2021/10/31 15:45:43;;;;;;;16.45;7.53;;;21.60;54.60;;;;;;6235942;28;20030;-66
2021/10/31 15:48:44;;;;;;;17.10;6.50;;;21.60;54.50;;;;;;6261953;28;20502;-69
2021/10/31 15:51:45;;;;;;;15.77;6.38;;;21.60;54.50;;;;;;6258898;28;20053;-69
2021/10/31 15:54:46;;;;;;;11.95;6.40;;;21.60;54.80;;;;;;6247849;28;20074;-69
2021/10/31 15:57:46;;;;;;;14.05;6.55;;;21.60;54.90;;;;;;6262158;28;20108;-69
2021/10/31 16:00:47;;;;;;;13.35;5.85;;;21.60;54.60;;;;;;6238586;28;20471;-69
2021/10/31 16:03:48;;;;;;;12.68;6.15;;;21.60;54.60;;;;;;6241641;28;20026;-69
2021/10/31 16:06:49;;;;;;;12.63;5.82;;;21.60;54.60;;;;;;6238093;28;20053;-69